Weather observations for the past three days for
Hot Springs, Memorial Field Airport
Imperial (Metric)
Date Time (cdt) Wind (mph) Vis. (mi.) Weather Sky Cond. Temperature (ºF) Relative Humidity Wind Chill (°F) Heat Index (°F) Pressure Precipitation (in)
Air Dwpt 6 hour altimeter (in) sea level (mb) 1 hr 3 hr 6 hr
Max. Min.
31 05:53 Calm 10.00 Fair CLR 75.9 66 72% 77 30.04 1016.3
31 04:53 Calm 10.00 Fair CLR 78.1 66 67% 80 30.03 1015.9
31 03:53 Calm 10.00 Fair CLR 79 64 60% 81 30.02 1015.6
31 02:53 E 3 10.00 Fair CLR 79 64 60% 81 30.01 1015.5
31 01:53 Calm 10.00 Fair CLR 79 63 58% 81 30.02 1015.8
31 00:53 E 6 10.00 Fair CLR 79 63 95 79 58% 81 30.02 1015.8
30 23:53 E 7 10.00 Fair CLR 81 63 54% 82 30.02 1015.7
30 22:53 E 7 10.00 Fair CLR 82 63 53% 83 30.01 1015.5
30 21:53 E 7 10.00 Fair CLR 82 64 55% 84 30 1015.0
30 20:53 E 7 10.00 Fair CLR 88 62.1 42% 88 29.98 1014.4
30 19:53 E 3 10.00 Fair CLR 91 57 32% 90 29.96 1013.9
30 18:53 SE 7 10.00 Fair CLR 95 55 99 93.9 26% 93 29.96 1013.9
30 17:53 S 7 10.00 Fair CLR 97 55.9 25% 95 29.96 1013.8
30 16:53 SE 10 10.00 Fair CLR 97 55 24% 95 29.97 1013.9
30 15:53 E 8 10.00 Fair CLR 98.1 57.9 26% 97 29.98 1014.4
30 14:53 Calm 10.00 Fair CLR 98.1 60.1 28% 98 30 1015.0
30 13:53 Calm 10.00 Fair CLR 95 61 32% 95 30.01 1015.5
30 12:53 Calm 10.00 Fair CLR 93.9 63 95 66.9 36% 95 30.03 1016.2
30 11:53 Vrbl 5 10.00 Fair CLR 91.9 63 38% 93 30.05 1016.9
30 10:53 Vrbl 3 10.00 Fair CLR 90 63 41% 91 30.06 1017.2
30 09:53 Vrbl 6 10.00 Fair CLR 86 63 46% 87 30.07 1017.5
30 08:53 Vrbl 3 10.00 Fair CLR 80.1 62.1 54% 81 30.08 1017.8
30 07:53 Calm 10.00 Fair CLR 72 62.1 71% 30.08 1017.8
30 06:53 Calm 10.00 Fair CLR 66.9 62.1 77 66.9 84% 30.07 1017.4
30 05:53 Calm 10.00 Fair CLR 69.1 62.1 78% 30.04 1016.5
30 04:53 Calm 10.00 Fair CLR 71.1 61 71% 30.04 1016.4
30 03:53 Calm 10.00 Fair CLR 73.9 60.1 62% 30.04 1016.3
30 02:53 E 5 10.00 Fair CLR 73.9 60.1 62% 30.04 1016.4
30 01:53 E 3 10.00 Fair CLR 75.9 59 56% 78 30.05 1016.7
30 00:53 E 5 10.00 Fair CLR 75.9 59 91.9 75 56% 78 30.05 1016.6
29 23:53 E 5 10.00 Fair CLR 77 60.1 56% 79 30.05 1016.6
29 22:53 E 6 10.00 Fair CLR 78.1 60.1 54% 79 30.04 1016.4
29 21:53 E 6 10.00 Fair CLR 80.1 60.1 51% 81 30.04 1016.3
29 20:53 E 7 10.00 Fair CLR 81 60.1 49% 82 30.02 1015.8
29 19:53 E 5 10.00 Fair CLR 88 59 38% 87 30.01 1015.4
29 18:53 SE 6 10.00 Fair CLR 91.9 57 96.1 91 31% 91 30.01 1015.4
29 17:53 Vrbl 7 10.00 Fair CLR 93.9 55 27% 92 30.01 1015.4
29 16:53 Vrbl 7 10.00 Fair CLR 95 55 26% 93 30.01 1015.4
29 15:53 NE 7 10.00 Fair CLR 95 55 26% 93 30.02 1015.8
29 14:53 SW 5 10.00 Fair CLR 95 55 26% 93 30.04 1016.6
29 13:53 S 9 10.00 Fair CLR 93 57 30% 92 30.07 1017.3
29 12:53 Vrbl 3 10.00 Fair CLR 91 57.9 91.9 68 33% 90 30.09 1018.1
29 11:53 Vrbl 3 10.00 Fair CLR 89.1 59 36% 88 30.12 1019.2
29 10:53 E 5 10.00 Fair CLR 87.1 60.1 40% 87 30.13 1019.5
29 09:53 Vrbl 3 10.00 Fair CLR 82.9 62.1 49% 84 30.12 1019.4
29 08:53 E 5 10.00 Fair CLR 77 64 64% 79 30.13 1019.5
29 07:53 Calm 10.00 Fair CLR 71.1 66 84% 30.12 1019.3
29 06:53 Calm 9.00 Fair CLR 68 64.9 73.9 68 90% 30.11 1018.9
29 05:53 Calm 10.00 Fair CLR 68 64.9 90% 30.1 1018.6
29 04:53 Calm 10.00 Fair CLR 69.1 64.9 87% 30.09 1018.3
29 02:53 Calm 10.00 Fair CLR 73 64 74% 30.08 1017.8
29 01:53 Calm 10.00 Fair CLR 73 64.9 76% 30.08 1017.9
29 00:53 Calm 10.00 Fair CLR 73.9 66 90 73.9 76% 30.09 1018.0
28 23:53 Calm 10.00 Fair CLR 75 64.9 71% 77 30.09 1018.0
28 22:53 Calm 10.00 Fair CLR 77 66 69% 79 30.08 1017.6
28 21:53 NE 3 10.00 Fair CLR 79 66 65% 81 30.06 1017.2
28 20:53 E 3 10.00 Fair CLR 84 64 51% 85 30.04 1016.4
28 19:53 E 6 10.00 Fair CLR 86 64 48% 87 30.02 1015.9
28 18:53 E 9 10.00 Fair CLR 90 62.1 95 90 39% 90 30.01 1015.6
28 17:53 E 8 10.00 Fair CLR 91 61 37% 91 30.01 1015.6
28 16:53 E 10 G 17 10.00 A Few Clouds FEW070 93.9 62.1 35% 95 30.02 1015.7
28 15:53 Vrbl 6 10.00 Fair CLR 93 62.1 36% 94 30.03 1016.0
28 14:53 E 9 G 16 9.00 A Few Clouds FEW065 91.9 62.1 37% 93 30.04 1016.5
28 13:53 NE 6 7.00 A Few Clouds FEW050 91.9 66 43% 95 30.06 1017.2
28 12:53 Vrbl 3 10.00 A Few Clouds FEW055 91 66 91.9 73 44% 94 30.09 1018.0
28 11:53 Vrbl 5 9.00 Fair CLR 88 66 48% 90 30.1 1018.5
28 10:53 Vrbl 5 8.00 Fair CLR 86 66 51% 88 30.11 1018.8
28 09:53 E 5 10.00 Fair CLR 82 66.9 60% 85 30.1 1018.6
28 08:53 E 7 10.00 Fair CLR 79 68 69% 81 30.1 1018.3
28 07:53 Calm 10.00 Fair CLR 75.9 70 82% 77 30.08 1017.6
28 06:53 SE 3 10.00 Fair CLR 73 69.1 82 73 87% 30.06 1017.0 0.08
Date Time (cdt) Wind (mph) Vis. (mi.) Weather Sky Cond. Air Dwpt Max. Min. Relative Humidity Wind Chill (°F) Heat Index (°F) altimeter (in) sea level (mb) 1 hr 3 hr 6 hr
6 hour
Temperature (ºF) Pressure Precipitation (in)